createdAt,value
2019-03-29T00:02:12.879Z,16.93
2019-03-29T00:04:41.461Z,18.23
2019-03-29T00:07:10.049Z,17.17
2019-03-29T00:09:38.616Z,18.50
2019-03-29T00:12:07.436Z,16.50
2019-03-29T00:14:36.077Z,17.35
2019-03-29T00:17:04.710Z,17.00
2019-03-29T00:19:33.432Z,18.48
2019-03-29T00:22:02.017Z,17.40
2019-03-29T00:24:30.691Z,18.55
2019-03-29T00:26:59.269Z,17.37
2019-03-29T00:29:27.932Z,17.10
2019-03-29T00:31:56.709Z,18.48
2019-03-29T00:34:25.358Z,17.42
2019-03-29T00:36:53.869Z,16.87
2019-03-29T00:39:22.453Z,16.27
2019-03-29T00:41:51.167Z,17.98
2019-03-29T00:44:19.820Z,17.90
2019-03-29T00:46:48.354Z,17.77
2019-03-29T00:49:16.962Z,19.40
2019-03-29T00:51:45.640Z,17.35
2019-03-29T00:54:14.383Z,16.85
2019-03-29T00:56:42.966Z,18.37
2019-03-29T00:59:11.552Z,17.37
2019-03-29T01:01:40.138Z,18.20
2019-03-29T01:04:08.844Z,18.62
2019-03-29T01:06:37.494Z,18.95
2019-03-29T01:09:07.118Z,18.82
2019-03-29T01:11:35.750Z,19.02
2019-03-29T01:14:04.381Z,19.42
2019-03-29T01:16:32.955Z,18.20
2019-03-29T01:19:02.502Z,18.30
2019-03-29T01:21:31.828Z,19.50
2019-03-29T01:24:00.408Z,20.33
2019-03-29T01:26:29.059Z,19.07
2019-03-29T01:28:57.641Z,19.52
2019-03-29T01:31:26.232Z,21.15
2019-03-29T01:33:54.919Z,21.60
2019-03-29T01:36:23.545Z,20.72
2019-03-29T01:38:52.299Z,19.77
2019-03-29T01:41:20.798Z,19.77
2019-03-29T01:43:49.376Z,21.30
2019-03-29T01:46:17.968Z,23.15
2019-03-29T01:48:46.945Z,22.10
2019-03-29T01:51:15.524Z,21.52
2019-03-29T01:53:44.226Z,21.37
2019-03-29T01:56:12.804Z,22.95
2019-03-29T01:58:41.422Z,22.32
2019-03-29T02:01:09.999Z,22.02
2019-03-29T02:03:39.274Z,23.87
2019-03-29T02:06:08.505Z,22.02
2019-03-29T02:08:37.809Z,24.12
2019-03-29T02:11:06.636Z,23.83
2019-03-29T02:13:35.287Z,23.33
2019-03-29T02:16:04.205Z,23.62
2019-03-29T02:18:32.998Z,22.52
2019-03-29T02:21:01.595Z,23.67
2019-03-29T02:23:30.893Z,20.97
2019-03-29T02:25:59.565Z,23.73
2019-03-29T02:28:28.350Z,22.30
2019-03-29T02:30:56.995Z,23.60
2019-03-29T02:33:25.611Z,21.97
2019-03-29T02:35:54.187Z,20.88
2019-03-29T02:38:23.748Z,21.87
2019-03-29T02:40:52.625Z,22.13
2019-03-29T02:43:21.242Z,22.85
2019-03-29T02:45:49.941Z,23.35
2019-03-29T02:48:18.529Z,22.95
2019-03-29T02:50:47.160Z,26.42
2019-03-29T02:53:15.896Z,24.57
2019-03-29T02:55:44.517Z,23.07
2019-03-29T02:58:13.229Z,23.52
2019-03-29T03:00:41.841Z,25.68
2019-03-29T03:03:10.490Z,24.50
2019-03-29T03:05:39.093Z,26.33
2019-03-29T03:08:07.712Z,25.45
2019-03-29T03:10:36.463Z,26.80
2019-03-29T03:13:05.051Z,27.10
2019-03-29T03:15:33.643Z,28.40
2019-03-29T03:18:02.216Z,29.52
2019-03-29T03:20:30.844Z,26.93
2019-03-29T03:22:59.427Z,28.42
2019-03-29T03:25:28.002Z,27.90
2019-03-29T03:27:56.740Z,27.58
2019-03-29T03:30:25.372Z,27.07
2019-03-29T03:32:53.966Z,26.50
2019-03-29T03:35:22.844Z,27.22
2019-03-29T03:37:51.454Z,25.77
2019-03-29T03:40:20.048Z,27.30
2019-03-29T03:42:48.725Z,25.65
2019-03-29T03:45:17.328Z,25.27
2019-03-29T03:47:45.906Z,26.20
2019-03-29T03:50:32.415Z,26.93
2019-03-29T03:53:01.007Z,25.80
2019-03-29T03:55:30.685Z,27.55
2019-03-29T03:57:59.962Z,29.25
2019-03-29T04:00:37.129Z,26.50
2019-03-29T04:03:05.708Z,26.10
2019-03-29T04:05:34.312Z,26.20
2019-03-29T04:08:02.921Z,26.55
2019-03-29T04:10:31.422Z,24.47
2019-03-29T04:13:00.030Z,25.50
2019-03-29T04:15:28.623Z,26.82
2019-03-29T04:17:57.221Z,24.70
2019-03-29T04:20:25.862Z,24.67
2019-03-29T04:22:54.487Z,24.75
2019-03-29T04:25:23.067Z,23.85
2019-03-29T04:27:51.655Z,24.23
2019-03-29T04:30:20.325Z,23.83
2019-03-29T04:32:48.912Z,26.23
2019-03-29T04:35:17.566Z,24.35
2019-03-29T04:37:46.175Z,24.18
2019-03-29T04:40:14.755Z,23.67
2019-03-29T04:42:43.604Z,24.40
2019-03-29T04:45:12.262Z,25.52
2019-03-29T04:47:40.946Z,24.37
2019-03-29T04:50:09.716Z,24.50
2019-03-29T04:52:38.218Z,24.50
2019-03-29T04:55:07.468Z,25.82
2019-03-29T04:57:36.070Z,25.88
2019-03-29T05:00:06.849Z,25.08
2019-03-29T05:02:35.480Z,25.48
2019-03-29T05:05:05.630Z,24.10
2019-03-29T05:07:36.863Z,25.43
2019-03-29T05:10:42.521Z,27.30
2019-03-29T05:12:37.920Z,24.82
2019-03-29T05:15:06.813Z,25.27
2019-03-29T05:17:35.330Z,25.57
2019-03-29T05:20:05.786Z,25.23
2019-03-29T05:22:34.515Z,26.07
2019-03-29T05:25:03.112Z,25.77
2019-03-29T05:27:31.969Z,27.27
2019-03-29T05:30:00.554Z,27.17
2019-03-29T05:32:29.136Z,25.65
2019-03-29T05:34:57.809Z,26.60
2019-03-29T05:37:26.406Z,26.52
2019-03-29T05:39:54.951Z,27.52
2019-03-29T05:42:23.544Z,25.77
2019-03-29T05:44:52.134Z,25.68
2019-03-29T05:47:20.639Z,27.10
2019-03-29T05:49:49.253Z,26.97
2019-03-29T05:52:18.054Z,27.42
2019-03-29T05:54:46.673Z,27.75
2019-03-29T05:57:15.505Z,25.65
2019-03-29T05:59:44.149Z,25.32
2019-03-29T06:02:12.755Z,25.25
2019-03-29T06:04:41.262Z,26.05
2019-03-29T06:07:09.840Z,24.82
2019-03-29T06:09:38.448Z,26.55
2019-03-29T06:12:07.029Z,26.40
2019-03-29T06:14:35.642Z,24.43
2019-03-29T06:17:04.317Z,25.70
2019-03-29T06:19:32.895Z,25.72
2019-03-29T06:22:01.676Z,26.27
2019-03-29T06:24:30.266Z,27.52
2019-03-29T06:26:58.853Z,25.93
2019-03-29T06:29:27.435Z,27.35
2019-03-29T06:31:56.021Z,25.20
2019-03-29T06:34:24.600Z,25.65
2019-03-29T06:36:54.396Z,25.32
2019-03-29T06:39:25.079Z,24.45
2019-03-29T06:41:53.708Z,25.25
2019-03-29T06:44:22.488Z,24.30
2019-03-29T06:46:51.136Z,23.32
2019-03-29T06:49:19.734Z,22.20
2019-03-29T06:51:48.313Z,20.88
2019-03-29T06:54:17.049Z,20.88
2019-03-29T06:56:45.721Z,21.15
2019-03-29T06:59:14.924Z,20.15
2019-03-29T07:01:46.422Z,19.50
2019-03-29T07:04:16.627Z,20.05
2019-03-29T07:06:49.337Z,21.17
2019-03-29T07:09:18.228Z,19.50
2019-03-29T07:11:47.395Z,18.98
2019-03-29T07:14:20.396Z,20.30
2019-03-29T07:16:49.158Z,18.75
2019-03-29T07:19:18.910Z,18.82
2019-03-29T07:21:47.670Z,18.43
2019-03-29T07:24:26.312Z,18.27
2019-03-29T07:26:55.536Z,15.70
2019-03-29T07:29:38.309Z,16.97
2019-03-29T07:32:07.645Z,17.07
2019-03-29T07:34:38.134Z,16.65
2019-03-29T07:37:08.638Z,17.07
2019-03-29T07:39:38.464Z,16.82
2019-03-29T07:42:21.097Z,16.97
2019-03-29T07:44:49.776Z,14.93
2019-03-29T07:47:19.534Z,14.57
2019-03-29T07:49:48.179Z,14.75
2019-03-29T07:52:18.754Z,14.43
2019-03-29T07:54:47.891Z,15.05
2019-03-29T07:57:16.513Z,14.40
2019-03-29T07:59:46.147Z,14.10
2019-03-29T08:02:14.813Z,13.53
2019-03-29T08:04:46.390Z,13.80
2019-03-29T08:07:26.615Z,14.15
2019-03-29T08:09:44.213Z,13.98
2019-03-29T08:12:12.873Z,15.13
2019-03-29T08:14:41.551Z,13.70
2019-03-29T08:17:10.357Z,14.18
2019-03-29T08:19:38.977Z,14.40
2019-03-29T08:22:07.854Z,13.62
2019-03-29T08:24:36.493Z,13.48
2019-03-29T08:27:05.080Z,12.73
2019-03-29T08:29:33.703Z,13.35
2019-03-29T08:32:02.425Z,12.88
2019-03-29T08:34:31.030Z,13.05
2019-03-29T08:36:59.665Z,13.37
2019-03-29T08:39:28.584Z,13.50
2019-03-29T08:42:00.423Z,13.25
2019-03-29T08:44:27.623Z,13.30
2019-03-29T08:46:56.218Z,14.07
2019-03-29T08:49:24.865Z,14.38
2019-03-29T08:51:53.711Z,13.00
2019-03-29T08:54:22.372Z,12.55
2019-03-29T08:56:51.069Z,12.00
2019-03-29T08:59:19.666Z,11.75
2019-03-29T09:01:48.238Z,11.55
2019-03-29T09:04:16.823Z,12.13
2019-03-29T09:06:53.483Z,11.65
2019-03-29T09:09:16.257Z,12.15
2019-03-29T09:11:44.840Z,11.97
2019-03-29T09:14:13.448Z,11.43
2019-03-29T09:16:42.283Z,12.40
2019-03-29T09:19:10.961Z,12.27
2019-03-29T09:21:39.566Z,10.82
2019-03-29T09:24:21.107Z,10.83
2019-03-29T09:26:38.462Z,11.33
2019-03-29T09:29:07.081Z,11.10
2019-03-29T09:31:35.717Z,10.72
2019-03-29T09:34:04.297Z,10.63
2019-03-29T09:36:32.913Z,10.80
2019-03-29T09:39:01.524Z,10.80
2019-03-29T09:41:30.109Z,11.18
2019-03-29T09:43:58.708Z,10.82
2019-03-29T09:46:27.519Z,10.93
2019-03-29T09:48:56.137Z,10.83
2019-03-29T09:51:24.716Z,11.08
2019-03-29T09:53:53.316Z,10.72
2019-03-29T09:56:37.285Z,10.03
2019-03-29T09:58:52.257Z,10.22
2019-03-29T10:01:21.078Z,10.10
2019-03-29T10:03:49.791Z,10.20
2019-03-29T10:06:18.370Z,10.70
2019-03-29T10:08:46.984Z,10.15
2019-03-29T10:11:15.569Z,10.10
2019-03-29T10:13:44.175Z,10.40
2019-03-29T10:16:12.808Z,10.65
2019-03-29T10:18:41.393Z,9.28
2019-03-29T10:21:09.915Z,11.00
2019-03-29T10:23:38.626Z,11.38
2019-03-29T10:26:07.205Z,10.03
2019-03-29T10:28:35.840Z,10.28
2019-03-29T10:31:04.422Z,9.85
2019-03-29T10:33:33.006Z,10.67
2019-03-29T10:36:01.859Z,10.38
2019-03-29T10:38:30.873Z,9.05
2019-03-29T10:40:59.380Z,9.93
2019-03-29T10:43:27.960Z,9.93
2019-03-29T10:45:56.614Z,10.60
2019-03-29T10:48:25.212Z,9.15
2019-03-29T10:50:53.787Z,9.87
2019-03-29T10:53:22.374Z,10.18
2019-03-29T10:55:50.955Z,9.73
2019-03-29T10:58:19.618Z,9.70
2019-03-29T11:00:48.224Z,9.20
2019-03-29T11:03:16.838Z,10.55
2019-03-29T11:05:45.416Z,9.70
2019-03-29T11:08:14.075Z,9.55
2019-03-29T11:10:42.667Z,10.53
2019-03-29T11:13:13.843Z,10.08
2019-03-29T11:15:41.777Z,10.57
2019-03-29T11:18:10.359Z,10.35
2019-03-29T11:20:38.947Z,10.32
2019-03-29T11:23:07.553Z,10.55
2019-03-29T11:25:36.136Z,10.48
2019-03-29T11:28:04.725Z,10.20
2019-03-29T11:30:41.961Z,10.23
2019-03-29T11:33:03.920Z,9.57
2019-03-29T11:35:32.510Z,10.08
2019-03-29T11:38:01.187Z,10.50
2019-03-29T11:40:29.762Z,9.93
2019-03-29T11:42:58.350Z,10.50
2019-03-29T11:45:27.138Z,10.80
2019-03-29T11:48:07.331Z,10.58
2019-03-29T11:50:28.894Z,10.60
2019-03-29T11:52:56.406Z,9.80
2019-03-29T11:55:24.997Z,10.80
2019-03-29T11:57:55.831Z,9.83
2019-03-29T12:00:34.547Z,10.65
2019-03-29T12:03:03.329Z,9.73
2019-03-29T12:05:31.912Z,10.38
2019-03-29T12:08:00.503Z,10.35
2019-03-29T12:10:29.082Z,10.47
2019-03-29T12:12:57.663Z,11.33
2019-03-29T12:15:26.314Z,10.88
2019-03-29T12:17:54.902Z,11.20
2019-03-29T12:20:23.565Z,10.45
2019-03-29T12:22:52.332Z,11.02
2019-03-29T12:25:21.158Z,10.90
2019-03-29T12:27:50.229Z,10.40
2019-03-29T12:30:31.446Z,10.43
2019-03-29T12:32:49.587Z,10.65
2019-03-29T12:35:18.168Z,10.72
2019-03-29T12:37:46.758Z,10.60
2019-03-29T12:40:15.476Z,10.03
2019-03-29T12:42:44.078Z,9.70
2019-03-29T12:45:12.953Z,9.93
2019-03-29T12:47:41.547Z,10.63
2019-03-29T12:50:10.326Z,9.85
2019-03-29T12:52:38.918Z,10.45
2019-03-29T12:55:07.620Z,10.18
2019-03-29T12:57:38.937Z,10.00
2019-03-29T13:00:07.833Z,9.83
2019-03-29T13:02:36.445Z,9.65
2019-03-29T13:05:06.394Z,10.55
2019-03-29T13:07:34.974Z,9.98
2019-03-29T13:10:05.246Z,9.30
2019-03-29T13:12:33.887Z,10.40
2019-03-29T13:15:02.458Z,9.87
2019-03-29T13:17:31.040Z,9.63
2019-03-29T13:19:59.652Z,8.95
2019-03-29T13:22:28.699Z,9.05
2019-03-29T13:24:57.300Z,22.77
2019-03-29T13:27:26.035Z,13.40
2019-03-29T13:29:54.870Z,10.03
2019-03-29T13:32:23.446Z,10.55
2019-03-29T13:34:52.027Z,9.80
2019-03-29T13:37:20.685Z,10.20
2019-03-29T13:39:49.402Z,9.40
2019-03-29T13:42:18.012Z,9.35
2019-03-29T13:44:46.595Z,9.48
2019-03-29T13:47:17.990Z,9.83
2019-03-29T13:49:45.785Z,9.50
2019-03-29T13:52:14.393Z,10.10
2019-03-29T13:54:43.441Z,9.18
2019-03-29T13:57:12.054Z,8.88
2019-03-29T13:59:40.710Z,8.93
2019-03-29T14:02:09.363Z,9.10
2019-03-29T14:04:38.323Z,9.35
2019-03-29T14:07:06.935Z,10.13
2019-03-29T14:09:35.524Z,9.43
2019-03-29T14:12:05.057Z,9.50
2019-03-29T14:14:38.611Z,8.70
2019-03-29T14:17:04.520Z,9.73
2019-03-29T14:19:33.205Z,9.80
2019-03-29T14:22:05.128Z,10.15
2019-03-29T14:24:35.522Z,10.60
2019-03-29T14:27:05.127Z,11.20
2019-03-29T14:29:36.209Z,11.05
2019-03-29T14:32:06.297Z,11.15
2019-03-29T14:34:35.460Z,10.15
2019-03-29T14:37:05.137Z,10.88
2019-03-29T14:39:34.310Z,10.70
2019-03-29T14:42:03.767Z,10.93
2019-03-29T14:44:32.404Z,10.23
2019-03-29T14:47:01.064Z,11.43
2019-03-29T14:49:29.946Z,10.58
2019-03-29T14:51:58.591Z,11.40
2019-03-29T14:54:27.851Z,10.58
2019-03-29T14:56:56.690Z,11.60
2019-03-29T14:59:25.282Z,11.43
2019-03-29T15:01:53.853Z,11.75
2019-03-29T15:04:22.673Z,12.63
2019-03-29T15:06:51.638Z,11.12
2019-03-29T15:09:21.374Z,10.60
2019-03-29T15:11:50.007Z,10.50
2019-03-29T15:14:18.642Z,10.63
2019-03-29T15:16:47.627Z,10.48
2019-03-29T15:19:16.215Z,10.75
2019-03-29T15:21:44.915Z,10.60
2019-03-29T15:24:14.196Z,10.80
2019-03-29T15:26:42.814Z,9.65
2019-03-29T15:29:11.472Z,11.05
2019-03-29T15:31:40.685Z,11.57
2019-03-29T15:34:09.282Z,11.50
2019-03-29T15:36:38.097Z,11.03
2019-03-29T15:39:07.503Z,10.33
2019-03-29T15:41:36.362Z,10.25
2019-03-29T15:44:05.243Z,10.70
2019-03-29T15:46:34.200Z,10.08
2019-03-29T15:49:03.041Z,10.68
2019-03-29T15:51:31.695Z,11.70
2019-03-29T15:54:01.030Z,11.45
2019-03-29T15:56:29.665Z,11.90
2019-03-29T15:58:58.285Z,11.30
2019-03-29T16:01:27.380Z,12.03
2019-03-29T16:03:56.745Z,11.88
2019-03-29T16:06:25.993Z,10.93
2019-03-29T16:08:54.643Z,10.95
2019-03-29T16:11:23.747Z,10.85
2019-03-29T16:13:52.349Z,11.00
2019-03-29T16:16:21.013Z,11.08
2019-03-29T16:18:49.602Z,10.38
2019-03-29T16:21:18.285Z,10.68
2019-03-29T16:23:46.919Z,10.63
2019-03-29T16:26:16.257Z,11.60
2019-03-29T16:28:45.299Z,11.43
2019-03-29T16:31:14.194Z,11.18
2019-03-29T16:33:42.798Z,11.48
2019-03-29T16:36:11.616Z,11.40
2019-03-29T16:38:40.260Z,11.50
2019-03-29T16:41:08.980Z,10.35
2019-03-29T16:43:38.121Z,11.10
2019-03-29T16:46:07.309Z,10.80
2019-03-29T16:48:36.002Z,11.80
2019-03-29T16:51:04.644Z,11.07
2019-03-29T16:53:33.224Z,11.35
2019-03-29T16:56:01.897Z,10.65
2019-03-29T16:58:30.525Z,11.30
2019-03-29T17:00:59.165Z,10.82
2019-03-29T17:03:28.571Z,11.22
2019-03-29T17:05:57.823Z,11.35
2019-03-29T17:08:26.511Z,10.23
2019-03-29T17:10:55.166Z,10.47
2019-03-29T17:13:24.236Z,8.97
2019-03-29T17:16:01.717Z,9.68
2019-03-29T17:18:29.359Z,8.63
2019-03-29T17:20:55.406Z,8.63
2019-03-29T17:23:24.917Z,8.85
2019-03-29T17:25:53.983Z,9.58
2019-03-29T17:28:22.887Z,8.88
2019-03-29T17:30:53.171Z,8.90
2019-03-29T17:33:22.562Z,9.55
2019-03-29T17:35:51.296Z,8.98
2019-03-29T17:38:19.902Z,8.90
2019-03-29T17:40:48.485Z,8.55
2019-03-29T17:43:17.499Z,8.70
2019-03-29T17:45:46.202Z,8.38
2019-03-29T17:48:14.807Z,8.33
2019-03-29T17:50:43.401Z,9.10
2019-03-29T17:53:12.231Z,8.45
2019-03-29T17:55:40.902Z,9.30
2019-03-29T17:58:09.490Z,9.40
2019-03-29T18:00:38.435Z,9.53
2019-03-29T18:03:07.134Z,9.83
2019-03-29T18:05:36.155Z,9.85
2019-03-29T18:08:04.845Z,10.50
2019-03-29T18:10:33.934Z,9.40
2019-03-29T18:13:03.377Z,10.65
2019-03-29T18:15:32.251Z,9.65
2019-03-29T18:18:01.506Z,10.60
2019-03-29T18:20:30.275Z,10.90
2019-03-29T18:22:59.200Z,11.30
2019-03-29T18:25:28.540Z,12.68
2019-03-29T18:27:57.149Z,13.32
2019-03-29T18:30:37.001Z,12.67
2019-03-29T18:33:06.456Z,13.45
2019-03-29T18:35:35.546Z,13.53
2019-03-29T18:38:04.722Z,12.78
2019-03-29T18:40:33.728Z,12.60
2019-03-29T18:43:02.401Z,12.50
2019-03-29T18:45:31.148Z,12.85
2019-03-29T18:48:01.237Z,12.50
2019-03-29T18:50:29.924Z,12.30
2019-03-29T18:52:58.507Z,13.33
2019-03-29T18:55:27.976Z,13.05
2019-03-29T18:57:56.683Z,14.33
2019-03-29T19:00:31.532Z,13.15
2019-03-29T19:03:00.439Z,12.83
2019-03-29T19:05:35.404Z,13.28
2019-03-29T19:08:03.999Z,13.43
2019-03-29T19:10:33.040Z,12.90
2019-03-29T19:13:02.023Z,13.18
2019-03-29T19:15:30.643Z,13.23
2019-03-29T19:18:00.161Z,13.45
2019-03-29T19:20:29.267Z,13.10
2019-03-29T19:23:01.581Z,14.80
2019-03-29T19:25:30.446Z,13.10
2019-03-29T19:27:59.782Z,14.45
2019-03-29T19:30:28.435Z,13.55
2019-03-29T19:32:57.490Z,14.38
2019-03-29T19:35:26.216Z,13.75
2019-03-29T19:37:54.833Z,13.30
2019-03-29T19:40:23.666Z,15.20
2019-03-29T19:42:52.450Z,13.00
2019-03-29T19:45:21.358Z,13.40
2019-03-29T19:47:50.414Z,13.85
2019-03-29T19:50:19.195Z,14.03
2019-03-29T19:52:47.797Z,13.75
2019-03-29T19:55:16.917Z,14.03
2019-03-29T19:57:46.622Z,16.57
2019-03-29T20:00:16.000Z,15.88
2019-03-29T20:02:45.100Z,16.35
2019-03-29T20:05:25.425Z,15.03
2019-03-29T20:07:55.052Z,13.55
2019-03-29T20:10:23.851Z,14.43
2019-03-29T20:12:52.966Z,14.13
2019-03-29T20:15:22.404Z,18.02
2019-03-29T20:17:51.057Z,16.77
2019-03-29T20:20:24.549Z,16.62
2019-03-29T20:22:54.928Z,17.77
2019-03-29T20:25:24.796Z,19.92
2019-03-29T20:27:58.164Z,18.80
2019-03-29T20:30:25.957Z,19.98
2019-03-29T20:32:55.216Z,19.27
2019-03-29T20:35:24.880Z,17.60
2019-03-29T20:37:53.858Z,17.62
2019-03-29T20:40:23.488Z,18.30
2019-03-29T20:42:52.139Z,16.03
2019-03-29T20:45:20.855Z,16.77
2019-03-29T20:47:51.960Z,16.55
2019-03-29T20:50:20.264Z,16.50
2019-03-29T20:52:49.129Z,16.12
2019-03-29T20:55:18.720Z,16.55
2019-03-29T20:57:47.505Z,16.62
2019-03-29T21:00:18.526Z,16.10
2019-03-29T21:02:47.423Z,17.42
2019-03-29T21:05:16.251Z,17.60
2019-03-29T21:07:45.092Z,16.40
2019-03-29T21:10:16.256Z,16.35
2019-03-29T21:12:46.447Z,17.98
2019-03-29T21:15:15.537Z,17.10
2019-03-29T21:17:55.934Z,16.47
2019-03-29T21:20:15.099Z,17.73
2019-03-29T21:22:44.272Z,17.60
2019-03-29T21:25:13.245Z,17.23
2019-03-29T21:27:42.040Z,17.55
2019-03-29T21:30:13.970Z,17.67
2019-03-29T21:32:42.702Z,18.27
2019-03-29T21:35:11.598Z,19.30
2019-03-29T21:37:40.207Z,18.95
2019-03-29T21:40:09.865Z,19.02
2019-03-29T21:42:38.534Z,18.95
2019-03-29T21:45:07.882Z,21.93
2019-03-29T21:47:36.777Z,20.50
2019-03-29T21:50:10.173Z,19.37
2019-03-29T21:52:38.816Z,19.17
2019-03-29T21:55:08.358Z,22.45
2019-03-29T21:57:37.201Z,21.90
2019-03-29T22:00:11.272Z,19.55
2019-03-29T22:02:39.857Z,20.02
2019-03-29T22:05:10.495Z,21.77
2019-03-29T22:07:40.071Z,19.23
2019-03-29T22:10:10.193Z,19.45
2019-03-29T22:12:39.093Z,20.57
2019-03-29T22:15:10.016Z,19.67
2019-03-29T22:17:39.355Z,20.10
2019-03-29T22:20:09.807Z,20.97
2019-03-29T22:22:38.696Z,20.88
2019-03-29T22:25:08.626Z,21.25
2019-03-29T22:27:37.539Z,20.25
2019-03-29T22:30:09.029Z,20.80
2019-03-29T22:32:37.683Z,22.10
2019-03-29T22:35:07.962Z,22.07
2019-03-29T22:37:36.821Z,21.52
2019-03-29T22:40:08.084Z,22.70
2019-03-29T22:42:36.696Z,20.77
2019-03-29T22:45:07.848Z,20.37
2019-03-29T22:47:36.478Z,21.02
2019-03-29T22:50:06.481Z,20.50
2019-03-29T22:52:35.447Z,20.40
2019-03-29T22:55:05.991Z,19.87
2019-03-29T22:57:34.571Z,20.77
2019-03-29T23:00:04.621Z,20.02
2019-03-29T23:02:33.214Z,20.43
2019-03-29T23:05:01.843Z,20.40
2019-03-29T23:07:30.496Z,20.05
2019-03-29T23:09:59.107Z,20.05
2019-03-29T23:12:27.686Z,20.17
2019-03-29T23:14:56.327Z,20.45
2019-03-29T23:17:25.015Z,20.00
2019-03-29T23:19:53.849Z,22.03
2019-03-29T23:22:22.497Z,20.05
2019-03-29T23:24:51.166Z,19.20
2019-03-29T23:27:19.724Z,19.95
2019-03-29T23:29:48.378Z,20.77
2019-03-29T23:32:17.019Z,21.30
2019-03-29T23:34:45.600Z,19.70
2019-03-29T23:37:14.260Z,22.65
2019-03-29T23:39:42.865Z,21.07
2019-03-29T23:42:11.444Z,23.50
2019-03-29T23:44:40.221Z,20.68
2019-03-29T23:47:08.800Z,20.85
2019-03-29T23:49:37.335Z,22.77
2019-03-29T23:52:05.972Z,23.22
2019-03-29T23:54:34.667Z,21.17
2019-03-29T23:57:03.524Z,21.73
2019-03-29T23:59:32.151Z,21.42
